createdAt,value
2023-06-13T00:04:46.564Z,3.67
2023-06-13T00:09:49.509Z,3.88
2023-06-13T00:14:53.062Z,3.45
2023-06-13T00:19:56.713Z,3.45
2023-06-13T00:24:59.469Z,3.17
2023-06-13T00:30:02.328Z,3.63
2023-06-13T00:35:09.972Z,3.47
2023-06-13T00:40:13.604Z,3.83
2023-06-13T00:45:23.944Z,4.30
2023-06-13T00:50:32.017Z,3.78
2023-06-13T00:55:34.758Z,4.05
2023-06-13T01:00:39.300Z,4.18
2023-06-13T01:05:44.099Z,3.90
2023-06-13T01:10:53.852Z,3.90
2023-06-13T01:16:37.059Z,3.97
2023-06-13T01:21:41.456Z,3.95
2023-06-13T01:26:56.262Z,3.70
2023-06-13T01:31:59.926Z,3.85
2023-06-13T01:37:03.912Z,3.92
2023-06-13T01:42:07.785Z,3.90
2023-06-13T01:47:16.631Z,3.90
2023-06-13T01:52:29.529Z,3.60
2023-06-13T01:57:40.778Z,3.30
2023-06-13T02:07:47.527Z,3.53
2023-06-13T02:12:50.329Z,3.55
2023-06-13T02:17:53.325Z,3.90
2023-06-13T02:22:58.231Z,4.50
2023-06-13T02:28:00.901Z,5.13
2023-06-13T02:33:03.725Z,4.82
2023-06-13T02:38:08.009Z,5.13
2023-06-13T02:43:10.780Z,4.63
2023-06-13T02:48:13.718Z,4.32
2023-06-13T02:53:16.499Z,4.80
2023-06-13T02:58:19.116Z,4.22
2023-06-13T03:03:25.036Z,3.75
2023-06-13T03:08:30.652Z,3.95
2023-06-13T03:13:34.699Z,4.13
2023-06-13T03:18:38.055Z,3.53
2023-06-13T03:23:42.347Z,4.35
2023-06-13T03:28:45.099Z,3.97
2023-06-13T03:33:48.287Z,3.35
2023-06-13T03:38:52.221Z,3.72
2023-06-13T03:43:55.846Z,3.30
2023-06-13T03:48:58.730Z,3.15
2023-06-13T03:54:01.595Z,3.22
2023-06-13T03:59:04.961Z,3.45
2023-06-13T04:04:08.152Z,3.42
2023-06-13T04:09:12.274Z,2.85
2023-06-13T04:14:15.007Z,2.80
2023-06-13T04:19:19.666Z,2.70
2023-06-13T04:24:23.146Z,2.72
2023-06-13T04:29:26.513Z,2.53
2023-06-13T04:34:32.868Z,2.38
2023-06-13T04:39:38.210Z,3.00
2023-06-13T04:44:42.135Z,2.20
2023-06-13T04:49:46.314Z,2.10
2023-06-13T04:54:49.068Z,2.20
2023-06-13T04:59:51.717Z,2.10
2023-06-13T05:04:56.929Z,2.65
2023-06-13T05:09:59.733Z,2.17
2023-06-13T05:15:02.643Z,1.98
2023-06-13T05:20:08.036Z,2.00
2023-06-13T05:25:13.195Z,1.60
2023-06-13T05:30:16.292Z,1.27
2023-06-13T05:35:19.298Z,1.70
2023-06-13T05:40:22.063Z,1.92
2023-06-13T05:45:24.678Z,1.65
2023-06-13T05:50:27.304Z,1.70
2023-06-13T05:55:29.966Z,2.38
2023-06-13T06:00:37.275Z,1.58
2023-06-13T06:05:40.730Z,1.98
2023-06-13T06:10:43.478Z,1.60
2023-06-13T06:15:46.186Z,1.50
2023-06-13T06:20:49.173Z,1.60
2023-06-13T06:25:52.472Z,1.52
2023-06-13T06:30:55.221Z,1.83
2023-06-13T06:35:58.114Z,1.50
2023-06-13T06:41:00.861Z,1.80
2023-06-13T06:46:04.981Z,1.60
2023-06-13T06:51:08.495Z,1.65
2023-06-13T06:56:11.180Z,1.92
2023-06-13T07:01:17.533Z,1.50
2023-06-13T07:06:20.465Z,1.20
2023-06-13T07:11:23.088Z,1.88
2023-06-13T07:16:25.880Z,2.00
2023-06-13T07:21:28.549Z,2.00
2023-06-13T07:26:31.227Z,1.60
2023-06-13T07:31:33.950Z,1.65
2023-06-13T07:36:39.025Z,1.60
2023-06-13T07:41:41.729Z,1.73
2023-06-13T07:46:45.591Z,2.05
2023-06-13T07:51:48.230Z,2.17
2023-06-13T07:56:53.134Z,1.88
2023-06-13T08:01:55.964Z,2.40
2023-06-13T08:07:01.670Z,1.90
2023-06-13T08:12:04.713Z,1.92
2023-06-13T08:17:07.654Z,1.80
2023-06-13T08:22:10.384Z,1.60
2023-06-13T08:27:20.614Z,1.95
2023-06-13T08:32:23.351Z,2.22
2023-06-13T08:37:26.215Z,1.80
2023-06-13T08:42:29.977Z,2.80
2023-06-13T08:47:38.575Z,4.43
2023-06-13T08:52:43.406Z,2.17
2023-06-13T08:57:48.943Z,2.13
2023-06-13T09:02:53.688Z,2.10
2023-06-13T09:08:18.085Z,2.00
2023-06-13T09:13:24.678Z,2.15
2023-06-13T09:18:28.745Z,1.80
2023-06-13T09:23:33.454Z,2.85
2023-06-13T09:28:43.369Z,2.30
2023-06-13T09:33:46.759Z,2.58
2023-06-13T09:38:49.956Z,1.90
2023-06-13T09:43:56.070Z,2.65
2023-06-13T09:48:58.766Z,2.22
2023-06-13T09:54:04.409Z,2.22
2023-06-13T09:59:07.588Z,2.53
2023-06-13T10:04:11.124Z,2.17
2023-06-13T10:09:13.736Z,2.13
2023-06-13T10:14:23.445Z,1.60
2023-06-13T10:19:26.989Z,3.88
2023-06-13T10:24:30.464Z,2.13
2023-06-13T10:29:54.922Z,1.98
2023-06-13T10:35:25.451Z,2.28
2023-06-13T10:40:28.163Z,2.10
2023-06-13T10:45:31.795Z,2.22
2023-06-13T10:50:41.922Z,2.70
2023-06-13T10:55:44.636Z,2.28
2023-06-13T11:00:47.312Z,2.50
2023-06-13T11:05:51.411Z,2.53
2023-06-13T11:10:56.887Z,3.30
2023-06-13T11:16:18.882Z,2.83
2023-06-13T11:21:21.465Z,2.65
2023-06-13T11:26:25.063Z,3.10
2023-06-13T11:31:29.841Z,2.80
2023-06-13T11:36:35.405Z,3.00
2023-06-13T11:41:38.958Z,2.47
2023-06-13T11:46:44.601Z,2.35
2023-06-13T11:51:47.358Z,2.47
2023-06-13T11:56:54.505Z,2.63
2023-06-13T12:01:57.287Z,2.40
2023-06-13T12:07:05.309Z,2.47
2023-06-13T12:12:08.268Z,2.47
2023-06-13T12:17:11.151Z,2.60
2023-06-13T12:22:17.076Z,2.50
2023-06-13T12:27:19.864Z,2.72
2023-06-13T12:32:26.376Z,2.28
2023-06-13T12:37:35.642Z,3.33
2023-06-13T12:42:38.392Z,2.30
2023-06-13T12:47:41.020Z,2.60
2023-06-13T12:52:43.659Z,3.25
2023-06-13T12:57:46.307Z,2.60
2023-06-13T13:02:49.245Z,2.78
2023-06-13T13:07:52.883Z,2.70
2023-06-13T13:12:55.679Z,2.40
2023-06-13T13:17:58.316Z,2.65
2023-06-13T13:23:04.131Z,1.80
2023-06-13T13:28:06.952Z,2.58
2023-06-13T13:33:09.740Z,2.70
2023-06-13T13:38:12.534Z,2.70
2023-06-13T13:43:15.199Z,2.58
2023-06-13T13:48:18.177Z,3.00
2023-06-13T13:53:21.041Z,3.10
2023-06-13T13:58:24.331Z,2.50
2023-06-13T14:03:27.132Z,2.78
2023-06-13T14:08:29.912Z,2.97
2023-06-13T14:13:34.088Z,2.65
2023-06-13T14:18:39.704Z,2.63
2023-06-13T14:23:42.370Z,6.50
2023-06-13T14:28:45.142Z,2.58
2023-06-13T14:33:49.719Z,3.05
2023-06-13T14:38:52.552Z,2.65
2023-06-13T14:43:55.347Z,3.17
2023-06-13T14:48:57.999Z,3.10
2023-06-13T14:54:00.826Z,2.65
2023-06-13T14:59:03.519Z,2.67
2023-06-13T15:04:07.487Z,3.22
2023-06-13T15:09:12.988Z,2.65
2023-06-13T15:14:15.949Z,2.70
2023-06-13T15:19:18.797Z,2.85
2023-06-13T15:24:22.557Z,2.63
2023-06-13T15:29:25.768Z,2.90
2023-06-13T15:34:28.827Z,2.72
2023-06-13T15:39:31.554Z,2.55
2023-06-13T15:44:34.317Z,2.53
2023-06-13T15:49:37.026Z,2.60
2023-06-13T15:54:39.707Z,2.90
2023-06-13T15:59:42.609Z,2.75
2023-06-13T16:04:45.434Z,2.78
2023-06-13T16:09:48.116Z,3.58
2023-06-13T16:14:50.916Z,3.15
2023-06-13T16:19:53.608Z,2.85
2023-06-13T16:24:56.911Z,2.47
2023-06-13T16:29:59.547Z,2.70
2023-06-13T16:35:03.451Z,3.15
2023-06-13T16:40:08.005Z,2.83
2023-06-13T16:45:10.800Z,2.78
2023-06-13T16:50:13.913Z,3.25
2023-06-13T16:55:17.002Z,3.60
2023-06-13T17:00:20.028Z,3.00
2023-06-13T17:05:22.745Z,3.05
2023-06-13T17:10:25.536Z,3.30
2023-06-13T17:15:28.375Z,3.30
2023-06-13T17:20:35.800Z,3.53
2023-06-13T17:25:41.073Z,3.42
2023-06-13T17:30:43.963Z,3.47
2023-06-13T17:35:46.769Z,3.40
2023-06-13T17:40:49.566Z,3.30
2023-06-13T17:45:53.759Z,3.50
2023-06-13T17:51:03.238Z,4.10
2023-06-13T17:56:06.077Z,3.30
2023-06-13T18:01:08.793Z,4.00
2023-06-13T18:06:12.699Z,3.70
2023-06-13T18:11:16.280Z,3.50
2023-06-13T18:16:19.005Z,3.92
2023-06-13T18:21:21.983Z,3.63
2023-06-13T18:26:24.664Z,4.05
2023-06-13T18:31:27.495Z,3.28
2023-06-13T18:36:30.784Z,3.05
2023-06-13T18:41:33.603Z,3.90
2023-06-13T18:46:36.488Z,3.15
2023-06-13T18:51:39.255Z,3.13
2023-06-13T18:56:42.009Z,3.28
2023-06-13T19:01:46.474Z,3.58
2023-06-13T19:06:49.185Z,3.67
2023-06-13T19:11:52.162Z,3.78
2023-06-13T19:16:55.196Z,3.90
2023-06-13T19:21:58.004Z,3.28
2023-06-13T19:27:00.913Z,3.60
2023-06-13T19:32:04.104Z,3.45
2023-06-13T19:37:07.840Z,3.42
2023-06-13T19:42:10.821Z,3.38
2023-06-13T19:47:13.526Z,2.97
2023-06-13T19:52:16.986Z,3.22
2023-06-13T19:57:20.129Z,3.35
2023-06-13T20:02:22.912Z,3.35
2023-06-13T20:07:29.319Z,4.53
2023-06-13T20:12:32.196Z,4.00
2023-06-13T20:17:36.880Z,3.58
2023-06-13T20:22:41.375Z,4.95
2023-06-13T20:27:45.507Z,3.95
2023-06-13T20:32:48.368Z,3.83
2023-06-13T20:37:51.550Z,3.60
2023-06-13T20:42:54.620Z,3.63
2023-06-13T20:47:58.068Z,4.00
2023-06-13T20:53:00.931Z,4.15
2023-06-13T20:58:04.386Z,4.22
2023-06-13T21:03:07.291Z,4.25
2023-06-13T21:08:12.181Z,4.07
2023-06-13T21:13:15.030Z,4.00
2023-06-13T21:18:18.273Z,3.88
2023-06-13T21:23:21.211Z,5.30
2023-06-13T21:28:24.055Z,9.40
2023-06-13T21:33:29.489Z,4.82
2023-06-13T21:38:32.819Z,4.07
2023-06-13T21:43:35.609Z,4.07
2023-06-13T21:48:40.764Z,4.55
2023-06-13T21:53:43.502Z,4.55
2023-06-13T21:58:46.252Z,4.47
2023-06-13T22:03:49.037Z,4.80
2023-06-13T22:08:51.815Z,5.50
2023-06-13T22:13:55.627Z,4.50
2023-06-13T22:18:59.969Z,4.55
2023-06-13T22:24:02.805Z,4.72
2023-06-13T22:29:06.934Z,4.70
2023-06-13T22:34:10.386Z,4.80
2023-06-13T22:39:13.223Z,4.68
2023-06-13T22:44:16.062Z,5.38
2023-06-13T22:49:18.786Z,4.80
2023-06-13T22:54:22.050Z,5.18
2023-06-13T22:59:25.228Z,4.50
2023-06-13T23:04:31.970Z,4.60
2023-06-13T23:09:35.026Z,4.25
2023-06-13T23:14:37.667Z,6.00
2023-06-13T23:19:41.365Z,4.15
2023-06-13T23:24:44.275Z,4.72
2023-06-13T23:29:48.455Z,3.72
2023-06-13T23:34:51.223Z,3.80
2023-06-13T23:39:54.019Z,5.00
2023-06-13T23:44:57.224Z,4.82
2023-06-13T23:49:59.927Z,4.70
2023-06-13T23:55:02.915Z,4.55
